createdAt,value
2016-11-02T00:00:12.878Z,1015.52
2016-11-02T00:01:12.953Z,1015.53
2016-11-02T00:02:12.919Z,1015.48
2016-11-02T00:03:12.918Z,1015.48
2016-11-02T00:04:12.943Z,1015.49
2016-11-02T00:05:12.950Z,1015.48
2016-11-02T00:06:12.971Z,1015.49
2016-11-02T00:07:12.987Z,1015.44
2016-11-02T00:08:12.998Z,1015.42
2016-11-02T00:09:13.013Z,1015.44
2016-11-02T00:10:13.032Z,1015.41
2016-11-02T00:11:13.047Z,1015.48
2016-11-02T00:12:13.166Z,1015.45
2016-11-02T00:13:13.075Z,1015.4
2016-11-02T00:14:13.089Z,1015.43
2016-11-02T00:15:13.106Z,1015.43
2016-11-02T00:16:13.130Z,1015.45
2016-11-02T00:17:13.130Z,1015.43
2016-11-02T00:18:13.149Z,1015.39
2016-11-02T00:19:13.165Z,1015.37
2016-11-02T00:20:13.181Z,1015.44
2016-11-02T00:21:13.197Z,1015.49
2016-11-02T00:22:13.221Z,1015.42
2016-11-02T00:23:13.231Z,1015.43
2016-11-02T00:24:13.245Z,1015.44
2016-11-02T00:25:13.258Z,1015.42
2016-11-02T00:26:13.279Z,1015.43
2016-11-02T00:27:13.352Z,1015.43
2016-11-02T00:28:13.306Z,1015.39
2016-11-02T00:29:13.421Z,1015.43
2016-11-02T00:30:13.338Z,1015.42
2016-11-02T00:31:13.360Z,1015.39
2016-11-02T00:32:13.375Z,1015.4
2016-11-02T00:33:13.389Z,1015.44
2016-11-02T00:34:13.404Z,1015.4
2016-11-02T00:35:13.412Z,1015.4
2016-11-02T00:36:13.432Z,1015.42
2016-11-02T00:37:13.450Z,1015.38
2016-11-02T00:38:13.460Z,1015.38
2016-11-02T00:39:13.476Z,1015.4
2016-11-02T00:40:13.492Z,1015.4
2016-11-02T00:41:13.504Z,1015.41
2016-11-02T00:42:13.532Z,1015.37
2016-11-02T00:43:13.537Z,1015.37
2016-11-02T00:44:13.559Z,1015.35
2016-11-02T00:45:13.571Z,1015.39
2016-11-02T00:46:13.587Z,1015.34
2016-11-02T00:47:13.600Z,1015.37
2016-11-02T00:48:13.622Z,1015.36
2016-11-02T00:49:13.628Z,1015.36
2016-11-02T00:50:13.647Z,1015.31
2016-11-02T00:51:13.669Z,1015.29
2016-11-02T00:52:13.680Z,1015.29
2016-11-02T00:53:13.699Z,1015.27
2016-11-02T00:54:13.708Z,1015.32
2016-11-02T00:55:13.730Z,1015.31
2016-11-02T00:56:13.738Z,1015.28
2016-11-02T00:57:13.750Z,1015.3
2016-11-02T00:58:13.768Z,1015.25
2016-11-02T00:59:13.787Z,1015.24
2016-11-02T01:00:13.797Z,1015.26
2016-11-02T01:01:13.818Z,1015.22
2016-11-02T01:02:13.838Z,1015.23
2016-11-02T01:03:13.850Z,1015.26
2016-11-02T01:04:13.859Z,1015.24
2016-11-02T01:05:13.878Z,1015.22
2016-11-02T01:06:13.886Z,1015.2
2016-11-02T01:07:13.905Z,1015.2
2016-11-02T01:08:13.923Z,1015.19
2016-11-02T01:09:13.938Z,1015.2
2016-11-02T01:10:13.949Z,1015.18
2016-11-02T01:11:13.972Z,1015.16
2016-11-02T01:12:13.984Z,1015.18
2016-11-02T01:13:14.004Z,1015.17
2016-11-02T01:14:14.013Z,1015.16
2016-11-02T01:15:14.021Z,1015.12
2016-11-02T01:16:14.045Z,1015.09
2016-11-02T01:17:14.056Z,1015.05
2016-11-02T01:18:14.073Z,1015.07
2016-11-02T01:19:14.083Z,1015.1
2016-11-02T01:20:14.107Z,1015.1
2016-11-02T01:21:14.118Z,1015.1
2016-11-02T01:22:14.133Z,1015.09
2016-11-02T01:23:14.145Z,1015.08
2016-11-02T01:24:14.173Z,1015.04
2016-11-02T01:25:14.179Z,1014.99
2016-11-02T01:26:14.190Z,1015.03
2016-11-02T01:27:14.213Z,1015.03
2016-11-02T01:28:14.224Z,1015.04
2016-11-02T01:29:14.237Z,1015.02
2016-11-02T01:30:14.263Z,1015.07
2016-11-02T01:31:14.277Z,1015.07
2016-11-02T01:32:14.285Z,1015.03
2016-11-02T01:33:14.303Z,1015.04
2016-11-02T01:34:14.320Z,1015.05
2016-11-02T01:35:14.335Z,1015.05
2016-11-02T01:36:14.350Z,1014.98
2016-11-02T01:37:14.366Z,1014.98
2016-11-02T01:38:14.376Z,1014.99
2016-11-02T01:39:14.394Z,1014.98
2016-11-02T01:40:14.410Z,1014.95
2016-11-02T01:41:14.422Z,1014.96
2016-11-02T01:42:14.443Z,1014.93
2016-11-02T01:43:14.457Z,1014.87
2016-11-02T01:44:14.473Z,1014.92
2016-11-02T01:45:14.492Z,1014.93
2016-11-02T01:46:14.506Z,1014.89
2016-11-02T01:47:14.526Z,1014.88
2016-11-02T01:48:14.531Z,1014.86
2016-11-02T01:49:14.550Z,1014.88
2016-11-02T01:50:14.562Z,1014.9
2016-11-02T01:51:14.595Z,1014.86
2016-11-02T01:52:14.592Z,1014.85
2016-11-02T01:53:14.616Z,1014.83
2016-11-02T01:54:14.623Z,1014.84
2016-11-02T01:55:14.640Z,1014.91
2016-11-02T01:56:14.665Z,1014.87
2016-11-02T01:57:14.673Z,1014.91
2016-11-02T01:58:14.691Z,1014.86
2016-11-02T01:59:14.704Z,1014.86
2016-11-02T02:00:14.717Z,1014.89
2016-11-02T02:01:14.735Z,1014.88
2016-11-02T02:02:14.764Z,1014.9
2016-11-02T02:03:14.765Z,1014.82
2016-11-02T02:04:14.783Z,1014.85
2016-11-02T02:05:14.794Z,1014.82
2016-11-02T02:06:14.813Z,1014.8
2016-11-02T02:07:14.832Z,1014.78
2016-11-02T02:08:14.895Z,1014.78
2016-11-02T02:09:14.861Z,1014.78
2016-11-02T02:10:14.886Z,1014.78
2016-11-02T02:11:14.890Z,1014.72
2016-11-02T02:12:14.905Z,1014.77
2016-11-02T02:13:14.926Z,1014.74
2016-11-02T02:14:14.947Z,1014.74
2016-11-02T02:15:14.957Z,1014.75
2016-11-02T02:16:14.975Z,1014.74
2016-11-02T02:17:14.989Z,1014.76
2016-11-02T02:18:15.001Z,1014.7
2016-11-02T02:19:15.016Z,1014.72
2016-11-02T02:20:15.025Z,1014.73
2016-11-02T02:21:15.056Z,1014.73
2016-11-02T02:22:15.063Z,1014.74
2016-11-02T02:23:15.079Z,1014.68
2016-11-02T02:24:15.096Z,1014.7
2016-11-02T02:25:15.113Z,1014.64
2016-11-02T02:26:15.122Z,1014.6
2016-11-02T02:27:15.146Z,1014.63
2016-11-02T02:28:15.151Z,1014.6
2016-11-02T02:29:15.172Z,1014.58
2016-11-02T02:30:15.187Z,1014.62
2016-11-02T02:31:15.200Z,1014.57
2016-11-02T02:32:15.216Z,1014.59
2016-11-02T02:33:15.229Z,1014.51
2016-11-02T02:34:15.248Z,1014.53
2016-11-02T02:35:15.260Z,1014.56
2016-11-02T02:36:15.277Z,1014.53
2016-11-02T02:37:15.292Z,1014.52
2016-11-02T02:38:15.308Z,1014.54
2016-11-02T02:39:15.322Z,1014.56
2016-11-02T02:40:15.347Z,1014.52
2016-11-02T02:41:15.392Z,1014.52
2016-11-02T02:42:15.375Z,1014.5
2016-11-02T02:43:15.389Z,1014.47
2016-11-02T02:44:15.410Z,1014.49
2016-11-02T02:45:15.417Z,1014.46
2016-11-02T02:46:15.436Z,1014.49
2016-11-02T02:47:15.449Z,1014.45
2016-11-02T02:48:15.463Z,1014.45
2016-11-02T02:49:15.481Z,1014.47
2016-11-02T02:50:15.494Z,1014.44
2016-11-02T02:51:15.516Z,1014.43
2016-11-02T02:52:15.521Z,1014.4
2016-11-02T02:53:15.537Z,1014.36
2016-11-02T02:54:15.553Z,1014.32
2016-11-02T02:55:15.574Z,1014.33
2016-11-02T02:56:15.586Z,1014.32
2016-11-02T02:57:15.600Z,1014.33
2016-11-02T02:58:15.619Z,1014.28
2016-11-02T02:59:15.637Z,1014.3
2016-11-02T03:00:15.651Z,1014.28
2016-11-02T03:01:15.660Z,1014.25
2016-11-02T03:02:15.680Z,1014.26
2016-11-02T03:03:15.692Z,1014.3
2016-11-02T03:04:15.710Z,1014.3
2016-11-02T03:05:15.729Z,1014.24
2016-11-02T03:06:15.740Z,1014.33
2016-11-02T03:07:15.761Z,1014.28
2016-11-02T03:08:15.770Z,1014.28
2016-11-02T03:09:15.790Z,1014.28
2016-11-02T03:10:15.805Z,1014.28
2016-11-02T03:11:15.819Z,1014.27
2016-11-02T03:12:15.839Z,1014.26
2016-11-02T03:13:15.849Z,1014.33
2016-11-02T03:14:15.865Z,1014.28
2016-11-02T03:15:15.879Z,1014.29
2016-11-02T03:16:15.897Z,1014.27
2016-11-02T03:17:15.921Z,1014.3
2016-11-02T03:18:15.933Z,1014.24
2016-11-02T03:19:15.949Z,1014.28
2016-11-02T03:20:15.956Z,1014.26
2016-11-02T03:21:15.971Z,1014.22
2016-11-02T03:22:15.989Z,1014.18
2016-11-02T03:23:16.003Z,1014.2
2016-11-02T03:24:16.018Z,1014.2
2016-11-02T03:25:16.037Z,1014.13
2016-11-02T03:26:16.054Z,1014.12
2016-11-02T03:27:16.072Z,1014.12
2016-11-02T03:28:16.086Z,1014.08
2016-11-02T03:29:16.093Z,1014.07
2016-11-02T03:30:16.111Z,1014.05
2016-11-02T03:31:16.127Z,1014.09
2016-11-02T03:32:16.153Z,1014.07
2016-11-02T03:33:16.162Z,1014.09
2016-11-02T03:34:16.183Z,1014.09
2016-11-02T03:35:16.189Z,1014.06
2016-11-02T03:36:16.213Z,1014.04
2016-11-02T03:37:16.223Z,1014.03
2016-11-02T03:38:16.247Z,1014.02
2016-11-02T03:39:16.257Z,1014.01
2016-11-02T03:40:16.266Z,1014
2016-11-02T03:41:16.290Z,1013.93
2016-11-02T03:42:16.298Z,1014.01
2016-11-02T03:43:16.311Z,1014.02
2016-11-02T03:44:16.342Z,1014.03
2016-11-02T03:45:16.348Z,1013.99
2016-11-02T03:46:16.359Z,1014.05
2016-11-02T03:47:16.390Z,1014.04
2016-11-02T03:48:16.390Z,1014.02
2016-11-02T03:49:16.404Z,1014.03
2016-11-02T03:50:16.425Z,1014.07
2016-11-02T03:51:16.439Z,1013.97
2016-11-02T03:52:16.452Z,1014
2016-11-02T03:53:16.473Z,1014
2016-11-02T03:54:16.490Z,1014.06
2016-11-02T03:55:16.502Z,1014.05
2016-11-02T03:56:16.519Z,1014.02
2016-11-02T03:57:16.537Z,1014.01
2016-11-02T03:58:16.555Z,1014.02
2016-11-02T03:59:16.558Z,1014.02
2016-11-02T04:00:16.580Z,1013.97
2016-11-02T04:01:16.604Z,1014
2016-11-02T04:02:16.660Z,1013.98
2016-11-02T04:03:16.625Z,1013.98
2016-11-02T04:04:16.660Z,1014
2016-11-02T04:05:16.655Z,1013.97
2016-11-02T04:06:16.675Z,1013.98
2016-11-02T04:07:16.706Z,1014.05
2016-11-02T04:08:16.709Z,1014.03
2016-11-02T04:09:16.721Z,1013.99
2016-11-02T04:10:16.740Z,1013.97
2016-11-02T04:11:16.752Z,1013.95
2016-11-02T04:12:16.763Z,1013.9
2016-11-02T04:13:16.792Z,1013.89
2016-11-02T04:14:16.798Z,1013.85
2016-11-02T04:15:16.861Z,1013.84
2016-11-02T04:16:16.848Z,1013.9
2016-11-02T04:17:16.891Z,1013.85
2016-11-02T04:18:16.862Z,1013.82
2016-11-02T04:19:16.877Z,1013.82
2016-11-02T04:20:16.891Z,1013.79
2016-11-02T04:21:16.915Z,1013.82
2016-11-02T04:22:16.922Z,1013.71
2016-11-02T04:23:16.936Z,1013.76
2016-11-02T04:24:16.949Z,1013.73
2016-11-02T04:25:16.968Z,1013.7
2016-11-02T04:26:16.983Z,1013.71
2016-11-02T04:27:17.000Z,1013.67
2016-11-02T04:28:17.018Z,1013.67
2016-11-02T04:29:17.032Z,1013.71
2016-11-02T04:30:17.056Z,1013.72
2016-11-02T04:31:17.059Z,1013.73
2016-11-02T04:32:17.081Z,1013.75
2016-11-02T04:33:17.091Z,1013.8
2016-11-02T04:34:17.106Z,1013.73
2016-11-02T04:35:17.122Z,1013.77
2016-11-02T04:36:17.135Z,1013.75
2016-11-02T04:37:17.151Z,1013.76
2016-11-02T04:38:17.170Z,1013.77
2016-11-02T04:39:17.185Z,1013.78
2016-11-02T04:40:17.200Z,1013.78
2016-11-02T04:41:17.220Z,1013.69
2016-11-02T04:42:17.233Z,1013.72
2016-11-02T04:43:17.299Z,1013.71
2016-11-02T04:44:17.261Z,1013.72
2016-11-02T04:45:17.327Z,1013.71
2016-11-02T04:46:17.292Z,1013.71
2016-11-02T04:47:17.312Z,1013.72
2016-11-02T04:48:17.320Z,1013.78
2016-11-02T04:49:17.344Z,1013.76
2016-11-02T04:50:17.360Z,1013.76
2016-11-02T04:51:17.370Z,1013.75
2016-11-02T04:52:17.392Z,1013.71
2016-11-02T04:53:17.400Z,1013.68
2016-11-02T04:54:17.410Z,1013.73
2016-11-02T04:55:17.477Z,1013.73
2016-11-02T04:56:17.451Z,1013.73
2016-11-02T04:57:17.462Z,1013.72
2016-11-02T04:58:17.530Z,1013.75
2016-11-02T04:59:17.501Z,1013.72
2016-11-02T05:00:17.508Z,1013.74
2016-11-02T05:01:17.523Z,1013.66
2016-11-02T05:02:17.549Z,1013.66
2016-11-02T05:03:17.552Z,1013.66
2016-11-02T05:04:17.570Z,1013.6
2016-11-02T05:05:17.579Z,1013.64
2016-11-02T05:06:17.598Z,1013.64
2016-11-02T05:07:17.619Z,1013.59
2016-11-02T05:08:17.632Z,1013.6
2016-11-02T05:09:17.651Z,1013.6
2016-11-02T05:10:17.661Z,1013.64
2016-11-02T05:11:17.677Z,1013.64
2016-11-02T05:12:17.688Z,1013.67
2016-11-02T05:13:17.707Z,1013.64
2016-11-02T05:14:17.725Z,1013.63
2016-11-02T05:15:17.744Z,1013.61
2016-11-02T05:16:17.763Z,1013.61
2016-11-02T05:17:17.771Z,1013.6
2016-11-02T05:18:17.781Z,1013.59
2016-11-02T05:19:17.800Z,1013.57
2016-11-02T05:20:17.814Z,1013.55
2016-11-02T05:21:17.833Z,1013.56
2016-11-02T05:22:17.846Z,1013.55
2016-11-02T05:23:17.862Z,1013.56
2016-11-02T05:24:17.877Z,1013.53
2016-11-02T05:25:17.890Z,1013.45
2016-11-02T05:26:17.911Z,1013.5
2016-11-02T05:27:17.923Z,1013.51
2016-11-02T05:28:17.939Z,1013.51
2016-11-02T05:29:17.960Z,1013.52
2016-11-02T05:30:17.971Z,1013.51
2016-11-02T05:31:17.983Z,1013.44
2016-11-02T05:32:18.003Z,1013.46
2016-11-02T05:33:18.011Z,1013.47
2016-11-02T05:34:18.032Z,1013.47
2016-11-02T05:35:18.044Z,1013.48
2016-11-02T05:36:18.061Z,1013.43
2016-11-02T05:37:18.073Z,1013.43
2016-11-02T05:38:18.091Z,1013.43
2016-11-02T05:39:18.105Z,1013.45
2016-11-02T05:40:18.121Z,1013.4
2016-11-02T05:41:18.150Z,1013.43
2016-11-02T05:42:18.170Z,1013.47
2016-11-02T05:43:18.170Z,1013.49
2016-11-02T05:44:18.187Z,1013.48
2016-11-02T05:45:18.200Z,1013.42
2016-11-02T05:46:18.220Z,1013.41
2016-11-02T05:47:18.229Z,1013.4
2016-11-02T05:48:18.247Z,1013.38
2016-11-02T05:49:18.271Z,1013.33
2016-11-02T05:50:18.281Z,1013.33
2016-11-02T05:51:18.293Z,1013.3
2016-11-02T05:52:18.315Z,1013.3
2016-11-02T05:53:18.330Z,1013.32
2016-11-02T05:54:18.343Z,1013.3
2016-11-02T05:55:18.359Z,1013.3
2016-11-02T05:56:18.380Z,1013.31
2016-11-02T05:57:18.390Z,1013.26
2016-11-02T05:58:18.411Z,1013.24
2016-11-02T05:59:18.418Z,1013.27
2016-11-02T06:00:18.432Z,1013.27
2016-11-02T06:01:18.447Z,1013.3
2016-11-02T06:02:18.476Z,1013.28
2016-11-02T06:03:18.488Z,1013.26
2016-11-02T06:04:18.500Z,1013.23
2016-11-02T06:05:18.624Z,1013.26
2016-11-02T06:06:18.527Z,1013.22
2016-11-02T06:07:18.551Z,1013.27
2016-11-02T06:08:18.564Z,1013.24
2016-11-02T06:09:18.578Z,1013.27
2016-11-02T06:10:18.588Z,1013.28
2016-11-02T06:11:18.606Z,1013.3
2016-11-02T06:12:18.627Z,1013.23
2016-11-02T06:13:18.640Z,1013.24
2016-11-02T06:14:18.658Z,1013.21
2016-11-02T06:15:18.667Z,1013.3
2016-11-02T06:16:18.690Z,1013.2
2016-11-02T06:17:18.700Z,1013.29
2016-11-02T06:18:18.720Z,1013.28
2016-11-02T06:19:18.733Z,1013.28
2016-11-02T06:20:18.743Z,1013.34
2016-11-02T06:21:18.759Z,1013.34
2016-11-02T06:22:18.780Z,1013.39
2016-11-02T06:23:18.794Z,1013.36
2016-11-02T06:24:18.817Z,1013.35
2016-11-02T06:25:18.825Z,1013.41
2016-11-02T06:26:18.846Z,1013.34
2016-11-02T06:27:18.858Z,1013.34
2016-11-02T06:28:18.872Z,1013.34
2016-11-02T06:29:18.888Z,1013.37
2016-11-02T06:30:18.912Z,1013.41
2016-11-02T06:31:18.923Z,1013.42
2016-11-02T06:32:18.945Z,1013.4
2016-11-02T06:33:18.961Z,1013.44
2016-11-02T06:34:18.969Z,1013.42
2016-11-02T06:35:19.073Z,1013.47
2016-11-02T06:36:18.994Z,1013.48
2016-11-02T06:37:19.077Z,1013.44
2016-11-02T06:38:19.029Z,1013.45
2016-11-02T06:39:19.043Z,1013.46
2016-11-02T06:40:19.059Z,1013.39
2016-11-02T06:41:19.073Z,1013.42
2016-11-02T06:42:19.089Z,1013.45
2016-11-02T06:43:19.108Z,1013.4
2016-11-02T06:44:19.126Z,1013.42
2016-11-02T06:45:19.137Z,1013.44
2016-11-02T06:46:19.157Z,1013.41
2016-11-02T06:47:19.166Z,1013.42
2016-11-02T06:48:19.186Z,1013.42
2016-11-02T06:49:19.201Z,1013.42
2016-11-02T06:50:19.263Z,1013.37
2016-11-02T06:51:19.247Z,1013.38
2016-11-02T06:52:19.302Z,1013.45
2016-11-02T06:53:19.261Z,1013.4
2016-11-02T06:54:19.476Z,1013.41
2016-11-02T06:55:19.294Z,1013.45
2016-11-02T06:56:19.310Z,1013.52
2016-11-02T06:57:19.332Z,1013.48
2016-11-02T06:58:19.348Z,1013.5
2016-11-02T06:59:19.358Z,1013.46
2016-11-02T07:00:19.379Z,1013.4
2016-11-02T07:01:19.398Z,1013.49
2016-11-02T07:02:19.406Z,1013.43
2016-11-02T07:03:19.425Z,1013.53
2016-11-02T07:04:19.440Z,1013.53
2016-11-02T07:05:19.459Z,1013.59
2016-11-02T07:06:19.471Z,1013.65
2016-11-02T07:07:19.483Z,1013.58
2016-11-02T07:08:19.505Z,1013.57
2016-11-02T07:09:19.523Z,1013.58
2016-11-02T07:10:19.534Z,1013.6
2016-11-02T07:11:19.547Z,1013.63
2016-11-02T07:12:19.568Z,1013.62
2016-11-02T07:13:19.587Z,1013.52
2016-11-02T07:14:19.598Z,1013.59
2016-11-02T07:15:19.617Z,1013.57
2016-11-02T07:16:19.637Z,1013.61
2016-11-02T07:17:19.646Z,1013.58
2016-11-02T07:18:19.669Z,1013.59
2016-11-02T07:19:19.676Z,1013.6
2016-11-02T07:20:19.696Z,1013.61
2016-11-02T07:21:19.717Z,1013.59
2016-11-02T07:22:19.728Z,1013.65
2016-11-02T07:23:19.748Z,1013.51
2016-11-02T07:24:19.758Z,1013.58
2016-11-02T07:25:19.777Z,1013.64
2016-11-02T07:26:19.797Z,1013.64
2016-11-02T07:27:19.806Z,1013.64
2016-11-02T07:28:19.822Z,1013.62
2016-11-02T07:29:19.843Z,1013.64
2016-11-02T07:30:19.856Z,1013.66
2016-11-02T07:31:19.876Z,1013.68
2016-11-02T07:32:19.893Z,1013.74
2016-11-02T07:33:19.909Z,1013.76
2016-11-02T07:34:19.925Z,1013.78
2016-11-02T07:35:19.942Z,1013.83
2016-11-02T07:36:19.954Z,1013.88
2016-11-02T07:37:19.981Z,1013.96
2016-11-02T07:38:19.997Z,1013.92
2016-11-02T07:39:20.008Z,1013.95
2016-11-02T07:40:20.029Z,1013.99
2016-11-02T07:41:20.042Z,1013.92
2016-11-02T07:42:20.056Z,1013.9
2016-11-02T07:43:20.078Z,1013.92
2016-11-02T07:44:20.092Z,1013.82
2016-11-02T07:45:20.117Z,1013.81
2016-11-02T07:46:20.125Z,1013.77
2016-11-02T07:47:20.147Z,1013.71
2016-11-02T07:48:20.158Z,1013.79
2016-11-02T07:49:20.179Z,1013.76
2016-11-02T07:50:20.191Z,1013.74
2016-11-02T07:51:20.221Z,1013.84
2016-11-02T07:52:20.226Z,1013.84
2016-11-02T07:53:20.245Z,1013.86
2016-11-02T07:54:20.269Z,1013.82
2016-11-02T07:55:20.274Z,1013.84
2016-11-02T07:56:20.295Z,1013.87
2016-11-02T07:57:20.306Z,1013.9
2016-11-02T07:58:20.330Z,1013.91
2016-11-02T07:59:20.338Z,1013.88
2016-11-02T08:00:20.357Z,1013.85
2016-11-02T08:01:20.383Z,1013.87
2016-11-02T08:02:20.397Z,1013.77
2016-11-02T08:03:20.414Z,1013.81
2016-11-02T08:04:20.432Z,1013.78
2016-11-02T08:05:20.447Z,1013.84
2016-11-02T08:06:20.459Z,1013.87
2016-11-02T08:07:20.478Z,1013.81
2016-11-02T08:08:20.491Z,1013.86
2016-11-02T08:09:20.508Z,1013.84
2016-11-02T08:10:20.565Z,1013.79
2016-11-02T08:11:20.550Z,1013.78
2016-11-02T08:12:20.607Z,1013.79
2016-11-02T08:13:20.578Z,1013.7
2016-11-02T08:14:20.593Z,1013.78
2016-11-02T08:15:20.607Z,1013.73
2016-11-02T08:16:20.629Z,1013.71
2016-11-02T08:17:20.645Z,1013.8
2016-11-02T08:18:20.662Z,1013.74
2016-11-02T08:19:21.129Z,1013.76
2016-11-02T08:20:20.944Z,1013.71
2016-11-02T08:21:21.121Z,1013.69
2016-11-02T08:22:20.935Z,1013.67
2016-11-02T08:23:20.750Z,1013.55
2016-11-02T08:24:20.962Z,1013.66
2016-11-02T08:25:21.188Z,1013.65
2016-11-02T08:26:20.950Z,1013.65
2016-11-02T08:27:21.167Z,1013.67
2016-11-02T08:28:20.987Z,1013.65
2016-11-02T08:29:20.852Z,1013.63
2016-11-02T08:30:21.020Z,1013.66
2016-11-02T08:31:21.148Z,1013.65
2016-11-02T08:32:21.005Z,1013.63
2016-11-02T08:33:21.124Z,1013.66
2016-11-02T08:34:21.044Z,1013.63
2016-11-02T08:35:21.004Z,1013.68
2016-11-02T08:36:21.025Z,1013.64
2016-11-02T08:37:21.037Z,1013.7
2016-11-02T08:38:21.254Z,1013.71
2016-11-02T08:39:21.175Z,1013.69
2016-11-02T08:40:21.238Z,1013.69
2016-11-02T08:41:21.051Z,1013.69
2016-11-02T08:42:21.222Z,1013.74
2016-11-02T08:43:21.084Z,1013.77
2016-11-02T08:44:21.303Z,1013.76
2016-11-02T08:45:21.119Z,1013.64
2016-11-02T08:46:21.284Z,1013.77
2016-11-02T08:47:21.158Z,1013.75
2016-11-02T08:48:21.272Z,1013.83
2016-11-02T08:49:21.186Z,1013.87
2016-11-02T08:50:21.250Z,1013.89
2016-11-02T08:51:21.229Z,1013.92
2016-11-02T08:52:21.242Z,1013.94
2016-11-02T08:53:21.370Z,1013.94
2016-11-02T08:54:21.274Z,1013.91
2016-11-02T08:55:21.441Z,1013.91
2016-11-02T08:56:21.304Z,1013.9
2016-11-02T08:57:21.376Z,1013.89
2016-11-02T08:58:21.345Z,1013.92
2016-11-02T08:59:21.416Z,1013.91
2016-11-02T09:00:21.368Z,1013.86
2016-11-02T09:01:21.441Z,1013.88
2016-11-02T09:02:21.427Z,1013.87
2016-11-02T09:03:21.478Z,1013.88
2016-11-02T09:04:21.450Z,1013.87
2016-11-02T09:05:21.508Z,1013.85
2016-11-02T09:06:21.486Z,1013.83
2016-11-02T09:07:21.492Z,1013.88
2016-11-02T09:08:21.534Z,1013.85
2016-11-02T09:09:21.525Z,1013.91
2016-11-02T09:10:21.595Z,1013.88
2016-11-02T09:11:21.564Z,1013.97
2016-11-02T09:12:21.590Z,1013.98
2016-11-02T09:13:21.599Z,1013.99
2016-11-02T09:14:21.618Z,1013.99
2016-11-02T09:15:22.035Z,1014.01
2016-11-02T09:16:21.951Z,1014.01
2016-11-02T09:17:21.675Z,1013.97
2016-11-02T09:18:21.685Z,1013.98
2016-11-02T09:19:21.708Z,1013.96
2016-11-02T09:20:21.771Z,1014
2016-11-02T09:21:21.737Z,1014.04
2016-11-02T09:22:21.757Z,1014
2016-11-02T09:23:21.778Z,1013.97
2016-11-02T09:24:21.787Z,1013.89
2016-11-02T09:25:22.007Z,1013.95
2016-11-02T09:26:21.825Z,1013.99
2016-11-02T09:27:21.846Z,1014.06
2016-11-02T09:28:21.871Z,1014.07
2016-11-02T09:29:21.886Z,1014.1
2016-11-02T09:30:21.907Z,1014.09
2016-11-02T09:31:21.915Z,1014.06
2016-11-02T09:32:21.938Z,1014.08
2016-11-02T09:33:21.956Z,1014.03
2016-11-02T09:34:21.975Z,1014.08
2016-11-02T09:35:21.996Z,1014.11
2016-11-02T09:36:22.008Z,1014.01
2016-11-02T09:37:22.027Z,1013.99
2016-11-02T09:38:22.043Z,1013.98
2016-11-02T09:39:22.209Z,1014.01
2016-11-02T09:40:22.078Z,1013.99
2016-11-02T09:41:22.097Z,1014.01
2016-11-02T09:42:22.115Z,1014.04
2016-11-02T09:43:22.131Z,1014
2016-11-02T09:44:22.149Z,1013.98
2016-11-02T09:45:22.163Z,1013.98
2016-11-02T09:46:22.188Z,1014.01
2016-11-02T09:47:22.208Z,1014.07
2016-11-02T09:48:22.224Z,1014.1
2016-11-02T09:49:22.248Z,1014.09
2016-11-02T09:50:22.259Z,1014.15
2016-11-02T09:51:22.277Z,1014.18
2016-11-02T09:52:22.294Z,1014.15
2016-11-02T09:53:22.311Z,1014.16
2016-11-02T09:54:22.332Z,1014.2
2016-11-02T09:55:22.355Z,1014.25
2016-11-02T09:56:22.366Z,1014.17
2016-11-02T09:57:22.389Z,1014.16
2016-11-02T09:58:22.405Z,1014.07
2016-11-02T09:59:22.429Z,1014.13
2016-11-02T10:00:22.445Z,1013.97
2016-11-02T10:01:22.477Z,1013.91
2016-11-02T10:02:22.480Z,1013.88
2016-11-02T10:03:22.496Z,1013.82
2016-11-02T10:04:22.517Z,1013.82
2016-11-02T10:05:22.536Z,1013.84
2016-11-02T10:06:22.557Z,1013.78
2016-11-02T10:07:22.591Z,1013.84
2016-11-02T10:08:22.594Z,1013.87
2016-11-02T10:09:22.606Z,1013.85
2016-11-02T10:10:22.629Z,1013.92
2016-11-02T10:11:22.651Z,1013.92
2016-11-02T10:12:22.667Z,1013.92
2016-11-02T10:13:22.684Z,1013.89
2016-11-02T10:14:22.704Z,1013.87
2016-11-02T10:15:22.715Z,1013.85
2016-11-02T10:16:22.738Z,1013.87
2016-11-02T10:17:22.757Z,1013.85
2016-11-02T10:18:22.776Z,1013.84
2016-11-02T10:19:22.795Z,1013.86
2016-11-02T10:20:22.820Z,1013.87
2016-11-02T10:21:22.828Z,1013.9
2016-11-02T10:22:22.849Z,1013.8
2016-11-02T10:23:22.866Z,1013.82
2016-11-02T10:24:22.890Z,1013.87
2016-11-02T10:25:22.909Z,1013.86
2016-11-02T10:26:22.924Z,1013.75
2016-11-02T10:27:22.940Z,1013.79
2016-11-02T10:28:22.959Z,1013.81
2016-11-02T10:29:22.974Z,1013.82
2016-11-02T10:30:22.999Z,1013.85
2016-11-02T10:31:23.022Z,1013.84
2016-11-02T10:32:23.030Z,1013.83
2016-11-02T10:33:23.049Z,1013.87
2016-11-02T10:34:23.075Z,1013.91
2016-11-02T10:35:23.088Z,1013.98
2016-11-02T10:36:23.108Z,1013.86
2016-11-02T10:37:23.128Z,1013.92
2016-11-02T10:38:23.150Z,1014.04
2016-11-02T10:39:23.167Z,1013.89
2016-11-02T10:40:23.199Z,1013.9
2016-11-02T10:41:23.250Z,1013.93
2016-11-02T10:42:23.217Z,1014.04
2016-11-02T10:43:23.237Z,1013.96
2016-11-02T10:44:23.257Z,1014.02
2016-11-02T10:45:23.279Z,1013.97
2016-11-02T10:46:23.299Z,1013.98
2016-11-02T10:47:23.310Z,1013.92
2016-11-02T10:48:23.330Z,1013.9
2016-11-02T10:49:23.350Z,1013.94
2016-11-02T10:50:23.372Z,1013.93
2016-11-02T10:51:23.390Z,1013.95
2016-11-02T10:52:23.413Z,1013.9
2016-11-02T10:53:23.421Z,1013.99
2016-11-02T10:54:23.440Z,1013.98
2016-11-02T10:55:23.461Z,1013.94
2016-11-02T10:56:23.479Z,1013.96
2016-11-02T10:57:23.495Z,1013.97
2016-11-02T10:58:23.519Z,1013.97
2016-11-02T10:59:23.528Z,1013.95
2016-11-02T11:00:23.551Z,1013.89
2016-11-02T11:01:23.570Z,1013.93
2016-11-02T11:02:23.600Z,1013.9
2016-11-02T11:03:23.653Z,1013.91
2016-11-02T11:04:23.621Z,1013.88
2016-11-02T11:05:23.650Z,1013.92
2016-11-02T11:06:23.659Z,1013.89
2016-11-02T11:07:23.681Z,1013.83
2016-11-02T11:08:23.711Z,1013.89
2016-11-02T11:09:23.711Z,1013.87
2016-11-02T11:10:23.729Z,1013.87
2016-11-02T11:11:23.741Z,1013.86
2016-11-02T11:12:23.772Z,1013.91
2016-11-02T11:13:23.791Z,1013.94
2016-11-02T11:14:23.801Z,1013.88
2016-11-02T11:15:23.823Z,1013.86
2016-11-02T11:16:23.843Z,1013.88
2016-11-02T11:17:23.851Z,1013.86
2016-11-02T11:18:23.870Z,1013.82
2016-11-02T11:19:23.891Z,1013.93
2016-11-02T11:20:23.908Z,1014.02
2016-11-02T11:21:23.927Z,1013.99
2016-11-02T11:22:23.940Z,1013.99
2016-11-02T11:23:23.961Z,1013.93
2016-11-02T11:24:23.977Z,1013.82
2016-11-02T11:25:23.987Z,1013.89
2016-11-02T11:26:24.008Z,1013.81
2016-11-02T11:27:24.028Z,1013.81
2016-11-02T11:28:24.051Z,1013.83
2016-11-02T11:29:24.067Z,1013.84
2016-11-02T11:30:24.088Z,1013.8
2016-11-02T11:31:24.110Z,1013.78
2016-11-02T11:32:24.120Z,1013.85
2016-11-02T11:33:24.136Z,1013.77
2016-11-02T11:34:24.155Z,1013.72
2016-11-02T11:35:24.171Z,1013.71
2016-11-02T11:36:24.192Z,1013.73
2016-11-02T11:37:24.206Z,1013.75
2016-11-02T11:38:24.224Z,1013.68
2016-11-02T11:39:24.240Z,1013.66
2016-11-02T11:40:24.263Z,1013.81
2016-11-02T11:41:24.279Z,1013.82
2016-11-02T11:42:24.301Z,1013.87
2016-11-02T11:43:24.312Z,1013.83
2016-11-02T11:44:24.331Z,1013.81
2016-11-02T11:45:24.344Z,1013.8
2016-11-02T11:46:24.360Z,1013.79
2016-11-02T11:47:24.392Z,1013.64
2016-11-02T11:48:24.397Z,1013.72
2016-11-02T11:49:24.421Z,1013.79
2016-11-02T11:50:24.442Z,1013.78
2016-11-02T11:51:24.453Z,1013.71
2016-11-02T11:52:24.484Z,1013.7
2016-11-02T11:53:24.484Z,1013.68
2016-11-02T11:54:24.501Z,1013.69
2016-11-02T11:55:24.521Z,1013.67
2016-11-02T11:56:24.541Z,1013.62
2016-11-02T11:57:24.561Z,1013.56
2016-11-02T11:58:24.636Z,1013.56
2016-11-02T11:59:24.588Z,1013.56
2016-11-02T12:00:24.606Z,1013.58
2016-11-02T12:01:24.620Z,1013.6
2016-11-02T12:02:24.643Z,1013.59
2016-11-02T12:03:24.658Z,1013.57
2016-11-02T12:04:24.692Z,1013.51
2016-11-02T12:05:24.694Z,1013.56
2016-11-02T12:06:24.710Z,1013.56
2016-11-02T12:07:24.732Z,1013.5
2016-11-02T12:08:24.755Z,1013.53